Time;durP1;ratioP1;P1;durP2;ratioP2;P2;SDS_P1;SDS_P2;PMS_P1;PMS_P2;Temp;Humidity;BMP_temperature;BMP_pressure;BME280_temperature;BME280_humidity;BME280_pressure;Samples;Min_cycle;Max_cycle;Signal;HPM_P1;HPM_P2
2022/01/31 00:01:39;;;;;;;5.78;1.70;;;25.70;51.50;;;;;;5046757;28;20203;-42
2022/01/31 00:04:16;;;;;;;3.65;1.30;;;25.70;51.40;;;;;;5046985;28;20245;-42
2022/01/31 00:06:48;;;;;;;3.88;1.58;;;25.70;51.50;;;;;;5046990;28;20215;-41
2022/01/31 00:09:21;;;;;;;3.40;1.40;;;25.70;51.40;;;;;;5047295;28;20227;-46
2022/01/31 00:11:59;;;;;;;2.90;1.17;;;25.80;51.40;;;;;;5046430;28;20223;-48
2022/01/31 00:14:40;;;;;;;7.47;1.50;;;25.80;51.40;;;;;;5046457;28;20233;-48
2022/01/31 00:17:12;;;;;;;3.50;1.30;;;25.80;51.40;;;;;;5046481;28;20316;-49
2022/01/31 00:19:45;;;;;;;3.88;1.17;;;25.80;51.30;;;;;;5046363;28;20262;-45
2022/01/31 00:22:16;;;;;;;3.60;1.30;;;25.80;51.20;;;;;;5046378;28;20647;-51
2022/01/31 00:24:47;;;;;;;3.75;1.38;;;25.80;51.20;;;;;;5047453;28;20209;-52
2022/01/31 00:27:17;;;;;;;3.60;1.33;;;25.80;51.10;;;;;;5046946;28;20199;-50
2022/01/31 00:29:48;;;;;;;5.25;1.52;;;25.90;51.20;;;;;;5046372;28;20199;-48
2022/01/31 00:32:18;;;;;;;3.35;1.25;;;25.90;51.20;;;;;;5046948;28;20677;-47
2022/01/31 00:34:51;;;;;;;3.25;1.20;;;25.90;51.10;;;;;;5046490;28;20211;-51
2022/01/31 00:37:21;;;;;;;4.32;1.63;;;25.90;51.20;;;;;;5045765;28;20195;-48
2022/01/31 00:39:52;;;;;;;3.33;1.30;;;25.90;51.10;;;;;;5045887;28;20249;-51
2022/01/31 00:42:24;;;;;;;3.80;1.65;;;25.90;51.10;;;;;;5047035;28;20192;-47
2022/01/31 00:44:58;;;;;;;3.42;1.40;;;25.90;51.10;;;;;;5046751;28;20222;-48
2022/01/31 00:47:31;;;;;;;3.28;1.40;;;25.90;51.10;;;;;;5046368;28;20208;-48
2022/01/31 00:50:08;;;;;;;4.65;1.67;;;25.90;51.20;;;;;;5045844;28;20192;-43
2022/01/31 00:52:40;;;;;;;3.65;1.38;;;25.90;51.40;;;;;;5045819;28;20199;-46
2022/01/31 00:55:12;;;;;;;4.95;1.73;;;26.00;51.20;;;;;;5045698;28;20215;-47
2022/01/31 00:57:43;;;;;;;3.83;1.50;;;25.90;51.10;;;;;;5045898;28;20203;-44
2022/01/31 01:00:15;;;;;;;6.85;1.70;;;26.00;51.20;;;;;;5045882;28;20634;-48
2022/01/31 01:02:47;;;;;;;5.75;1.60;;;25.90;51.20;;;;;;5046738;28;20203;-45
2022/01/31 01:05:19;;;;;;;5.35;1.60;;;26.00;51.20;;;;;;5046234;28;20219;-44
2022/01/31 01:07:50;;;;;;;4.78;1.67;;;26.00;51.20;;;;;;5046782;28;20246;-47
2022/01/31 01:10:21;;;;;;;5.00;1.75;;;26.00;51.20;;;;;;5046750;28;20640;-49
2022/01/31 01:12:52;;;;;;;4.20;1.70;;;26.00;51.20;;;;;;5047034;28;20191;-45
2022/01/31 01:15:23;;;;;;;4.25;1.67;;;26.00;51.20;;;;;;5045103;28;20762;-49
2022/01/31 01:17:53;;;;;;;4.75;1.40;;;26.10;51.20;;;;;;5046078;28;20203;-43
2022/01/31 01:20:26;;;;;;;4.70;1.52;;;26.10;51.20;;;;;;5046528;28;20204;-42
2022/01/31 01:22:57;;;;;;;5.30;1.30;;;26.00;51.20;;;;;;5046513;28;20213;-43
2022/01/31 01:25:28;;;;;;;5.15;1.60;;;26.10;51.20;;;;;;5045273;28;20710;-44
2022/01/31 01:27:58;;;;;;;4.97;1.50;;;26.10;51.20;;;;;;5045574;28;20199;-49
2022/01/31 01:30:29;;;;;;;5.60;1.55;;;26.10;51.20;;;;;;5047650;28;21511;-44
2022/01/31 01:33:07;;;;;;;4.78;1.60;;;26.10;51.20;;;;;;5050305;28;20713;-43
2022/01/31 01:35:40;;;;;;;3.33;1.30;;;26.10;51.20;;;;;;5049479;28;20552;-41
2022/01/31 01:38:15;;;;;;;5.80;2.08;;;26.10;51.10;;;;;;5049631;28;20223;-42
2022/01/31 01:40:46;;;;;;;5.80;1.52;;;26.10;51.10;;;;;;5047597;28;20221;-43
2022/01/31 01:43:18;;;;;;;3.95;1.58;;;26.10;51.10;;;;;;5049356;28;20195;-42
2022/01/31 01:45:52;;;;;;;4.00;1.38;;;26.10;51.10;;;;;;5049481;28;20223;-49
2022/01/31 01:48:24;;;;;;;4.57;1.38;;;26.10;51.10;;;;;;5048789;28;20191;-47
2022/01/31 01:50:57;;;;;;;3.55;1.30;;;26.10;51.10;;;;;;5048793;28;20255;-48
2022/01/31 01:53:28;;;;;;;4.35;1.33;;;26.10;51.20;;;;;;5049466;28;20204;-47
2022/01/31 01:55:59;;;;;;;4.97;1.42;;;26.10;51.10;;;;;;5049406;28;20740;-44
2022/01/31 01:58:38;;;;;;;5.82;1.40;;;26.10;51.10;;;;;;5048798;28;20662;-46
2022/01/31 02:01:10;;;;;;;4.95;1.55;;;26.10;51.10;;;;;;5048725;28;20304;-49
2022/01/31 02:03:42;;;;;;;3.92;1.58;;;26.10;51.10;;;;;;5048857;28;20242;-47
2022/01/31 02:06:14;;;;;;;3.40;1.55;;;26.20;51.10;;;;;;5049741;28;20219;-44
2022/01/31 02:08:46;;;;;;;4.22;1.50;;;26.20;51.10;;;;;;5048808;28;20192;-46
2022/01/31 02:11:20;;;;;;;3.83;1.35;;;26.20;51.10;;;;;;5048875;28;20249;-47
2022/01/31 02:13:51;;;;;;;3.95;1.40;;;26.20;51.10;;;;;;5048413;28;20203;-46
2022/01/31 02:16:21;;;;;;;4.45;1.70;;;26.20;51.10;;;;;;5049103;28;20211;-46
2022/01/31 02:18:54;;;;;;;6.85;1.45;;;26.20;51.10;;;;;;5048847;28;20242;-43
2022/01/31 02:21:26;;;;;;;3.92;1.30;;;26.20;51.10;;;;;;5049829;28;20199;-41
2022/01/31 02:23:57;;;;;;;4.03;1.45;;;26.20;51.10;;;;;;5049492;28;20195;-48
2022/01/31 02:26:28;;;;;;;3.95;1.27;;;26.20;51.00;;;;;;5048844;28;20277;-44
2022/01/31 02:28:59;;;;;;;5.15;1.55;;;26.20;51.00;;;;;;5048006;28;20288;-41
2022/01/31 02:31:29;;;;;;;3.85;1.63;;;26.20;51.00;;;;;;5048911;28;20219;-41
2022/01/31 02:34:03;;;;;;;4.88;1.30;;;26.30;51.10;;;;;;5048758;28;20199;-42
2022/01/31 02:36:35;;;;;;;3.42;1.38;;;26.30;51.10;;;;;;5048780;28;20223;-42
2022/01/31 02:39:06;;;;;;;5.93;1.63;;;26.30;51.10;;;;;;5048413;28;20249;-42
2022/01/31 02:41:43;;;;;;;5.18;1.52;;;26.30;51.10;;;;;;5047969;28;20205;-41
2022/01/31 02:44:16;;;;;;;4.07;1.38;;;26.30;51.00;;;;;;5049050;28;20548;-42
2022/01/31 02:46:51;;;;;;;3.00;1.10;;;26.30;51.00;;;;;;5047760;28;20334;-44
2022/01/31 02:49:26;;;;;;;4.03;1.40;;;26.30;51.00;;;;;;5048291;28;20683;-45
2022/01/31 02:52:02;;;;;;;4.18;1.38;;;26.30;50.90;;;;;;5048400;28;20256;-41
2022/01/31 02:54:33;;;;;;;2.63;1.42;;;26.40;51.00;;;;;;5048329;28;20207;-41
2022/01/31 02:57:03;;;;;;;4.28;1.55;;;26.30;50.80;;;;;;5047881;28;20300;-43
2022/01/31 02:59:34;;;;;;;4.32;1.40;;;26.40;50.80;;;;;;5047884;28;20204;-47
2022/01/31 03:02:05;;;;;;;3.78;1.40;;;26.30;50.70;;;;;;5047447;28;20222;-42
2022/01/31 03:04:35;;;;;;;3.50;1.58;;;26.30;50.70;;;;;;5047582;28;21466;-44
2022/01/31 03:07:08;;;;;;;2.55;1.48;;;26.40;50.70;;;;;;5048050;28;20218;-42
2022/01/31 03:09:39;;;;;;;4.82;1.65;;;26.40;50.70;;;;;;5047786;28;20221;-44
2022/01/31 03:12:10;;;;;;;3.60;1.60;;;26.40;50.60;;;;;;5048983;28;20215;-42
2022/01/31 03:14:42;;;;;;;4.88;1.63;;;26.40;50.50;;;;;;5047698;28;20212;-46
2022/01/31 03:17:12;;;;;;;4.07;1.80;;;26.40;50.50;;;;;;5047526;28;20557;-43
2022/01/31 03:19:43;;;;;;;5.70;1.40;;;26.40;50.50;;;;;;5046242;28;20196;-46
2022/01/31 03:22:19;;;;;;;3.40;1.55;;;26.40;50.50;;;;;;5048305;28;20196;-44
2022/01/31 03:24:50;;;;;;;4.45;1.60;;;26.40;50.40;;;;;;5046690;28;20211;-43
2022/01/31 03:27:23;;;;;;;3.70;1.40;;;26.40;50.40;;;;;;5047491;28;20217;-43
2022/01/31 03:29:53;;;;;;;2.38;1.20;;;26.50;50.50;;;;;;5047836;28;20730;-41
2022/01/31 03:32:24;;;;;;;3.95;1.55;;;26.50;50.30;;;;;;5047888;28;20269;-42
2022/01/31 03:34:55;;;;;;;2.60;1.38;;;26.50;50.30;;;;;;5047519;28;20195;-41
2022/01/31 03:37:27;;;;;;;3.50;1.55;;;26.50;50.30;;;;;;5047271;28;20191;-42
2022/01/31 03:39:58;;;;;;;4.72;1.55;;;26.50;50.20;;;;;;5046493;28;20803;-42
2022/01/31 03:42:28;;;;;;;3.97;1.60;;;26.50;50.20;;;;;;5046571;28;20199;-42
2022/01/31 03:44:59;;;;;;;2.67;1.40;;;26.50;50.10;;;;;;5046704;28;20199;-42
2022/01/31 03:47:29;;;;;;;4.50;1.50;;;26.50;50.10;;;;;;5047315;28;20616;-41
2022/01/31 03:50:00;;;;;;;2.58;1.40;;;26.50;50.00;;;;;;5047714;28;20211;-41
2022/01/31 03:52:33;;;;;;;5.93;1.08;;;26.50;50.00;;;;;;5046259;28;20265;-42
2022/01/31 03:55:03;;;;;;;5.93;1.50;;;26.60;49.80;;;;;;5046826;28;20689;-45
2022/01/31 03:57:34;;;;;;;5.43;1.50;;;26.60;49.90;;;;;;5047994;28;20200;-43
2022/01/31 04:00:06;;;;;;;7.55;1.50;;;26.50;49.80;;;;;;5046147;28;20203;-45
2022/01/31 04:02:36;;;;;;;5.03;1.23;;;26.50;49.90;;;;;;5047405;28;20265;-46
2022/01/31 04:05:07;;;;;;;2.88;1.20;;;26.50;49.90;;;;;;5047646;28;20694;-43
2022/01/31 04:07:40;;;;;;;4.38;1.38;;;26.50;49.90;;;;;;5047091;28;20276;-37
2022/01/31 04:10:11;;;;;;;6.18;1.50;;;26.60;49.90;;;;;;5046394;28;20211;-41
2022/01/31 04:12:42;;;;;;;5.00;1.45;;;26.60;49.90;;;;;;5046150;28;20223;-41
2022/01/31 04:15:13;;;;;;;4.50;1.52;;;26.50;49.90;;;;;;5046387;28;20310;-52
2022/01/31 04:17:44;;;;;;;5.95;1.52;;;26.50;49.90;;;;;;5047059;28;20242;-39
2022/01/31 04:20:15;;;;;;;3.50;1.67;;;26.50;50.00;;;;;;5046859;28;20624;-41
2022/01/31 04:22:52;;;;;;;3.35;1.25;;;26.50;49.90;;;;;;5047400;28;20202;-45
2022/01/31 04:25:31;;;;;;;6.07;1.90;;;26.50;49.90;;;;;;5046876;28;20774;-41
2022/01/31 04:28:15;;;;;;;5.57;1.63;;;26.50;50.00;;;;;;5045445;28;20288;-43
2022/01/31 04:30:52;;;;;;;7.22;1.30;;;26.50;50.10;;;;;;5047320;28;20282;-43
2022/01/31 04:33:22;;;;;;;4.43;1.40;;;26.50;50.20;;;;;;5045133;28;20235;-43
2022/01/31 04:35:53;;;;;;;5.35;1.42;;;26.50;50.20;;;;;;5045267;28;20219;-46
2022/01/31 04:38:27;;;;;;;2.90;1.17;;;26.50;50.20;;;;;;5045792;28;20253;-41
2022/01/31 04:40:57;;;;;;;2.67;1.30;;;26.50;50.20;;;;;;5047291;28;20713;-44
2022/01/31 04:43:28;;;;;;;3.50;1.50;;;26.50;50.20;;;;;;5046208;28;20208;-41
2022/01/31 04:46:01;;;;;;;3.05;1.48;;;26.60;50.30;;;;;;5046491;28;20227;-48
2022/01/31 04:48:31;;;;;;;5.55;1.55;;;26.60;50.40;;;;;;5046803;28;20215;-42
2022/01/31 04:51:02;;;;;;;3.15;1.38;;;26.60;50.40;;;;;;5045910;28;20196;-41
2022/01/31 04:53:34;;;;;;;5.97;1.50;;;26.60;50.50;;;;;;5047293;28;20199;-41
2022/01/31 04:56:05;;;;;;;3.72;1.48;;;26.60;50.50;;;;;;5046491;28;20215;-41
2022/01/31 04:58:36;;;;;;;4.18;1.73;;;26.70;50.50;;;;;;5045886;28;20257;-41
2022/01/31 05:01:07;;;;;;;7.05;1.90;;;26.70;50.50;;;;;;5045788;28;20250;-41
2022/01/31 05:03:38;;;;;;;4.40;1.60;;;26.80;50.50;;;;;;5046728;28;20288;-41
2022/01/31 05:06:12;;;;;;;4.65;1.58;;;26.80;50.50;;;;;;5048139;28;20231;-41
2022/01/31 05:08:45;;;;;;;4.30;1.52;;;26.80;50.50;;;;;;5050600;28;20203;-44
2022/01/31 05:11:16;;;;;;;4.13;1.63;;;26.80;50.50;;;;;;5049739;28;20574;-41
2022/01/31 05:13:47;;;;;;;6.32;1.95;;;26.80;50.50;;;;;;5049656;28;20187;-42
2022/01/31 05:16:17;;;;;;;4.13;1.75;;;26.90;50.70;;;;;;5049869;28;20215;-41
2022/01/31 05:18:48;;;;;;;4.43;1.73;;;26.90;50.50;;;;;;5049976;28;20253;-43
2022/01/31 05:21:19;;;;;;;4.50;1.52;;;26.90;50.50;;;;;;5049631;28;20195;-44
2022/01/31 05:23:51;;;;;;;3.67;1.63;;;26.90;50.50;;;;;;5050455;28;20196;-47
2022/01/31 05:26:22;;;;;;;5.32;1.95;;;26.90;50.50;;;;;;5049624;28;20293;-42
2022/01/31 05:28:53;;;;;;;3.92;1.60;;;26.90;50.50;;;;;;5049134;28;20203;-42
2022/01/31 05:31:24;;;;;;;4.00;1.63;;;26.90;50.50;;;;;;5049788;28;20620;-42
2022/01/31 05:33:54;;;;;;;4.45;1.50;;;27.00;50.50;;;;;;5049257;28;20199;-44
2022/01/31 05:36:25;;;;;;;4.25;1.60;;;27.00;50.50;;;;;;5050372;28;20277;-49
2022/01/31 05:38:57;;;;;;;3.22;1.30;;;27.00;50.50;;;;;;5050058;28;20708;-45
2022/01/31 05:41:28;;;;;;;3.67;1.58;;;27.00;50.50;;;;;;5049368;28;20195;-42
2022/01/31 05:43:58;;;;;;;5.10;1.75;;;27.00;50.50;;;;;;5050212;28;20195;-42
2022/01/31 05:46:29;;;;;;;2.92;1.55;;;27.00;50.40;;;;;;5049185;28;20272;-45
2022/01/31 05:49:00;;;;;;;4.60;1.88;;;27.00;50.50;;;;;;5049010;28;20203;-41
2022/01/31 05:51:31;;;;;;;4.03;1.70;;;27.00;50.40;;;;;;5049437;28;20607;-46
2022/01/31 05:54:03;;;;;;;5.03;1.85;;;27.00;50.40;;;;;;5050030;28;20260;-42
2022/01/31 05:56:34;;;;;;;3.53;1.75;;;27.00;50.40;;;;;;5049596;28;20412;-41
2022/01/31 05:59:05;;;;;;;4.75;2.42;;;27.00;50.40;;;;;;5050161;28;20191;-41
2022/01/31 06:01:38;;;;;;;5.07;2.15;;;27.00;50.40;;;;;;5049409;28;20195;-43
2022/01/31 06:04:09;;;;;;;4.07;2.45;;;27.00;50.40;;;;;;5049190;28;20196;-43
2022/01/31 06:06:39;;;;;;;4.95;2.53;;;27.00;50.40;;;;;;5049710;28;20231;-42
2022/01/31 06:09:12;;;;;;;5.63;2.80;;;27.00;50.40;;;;;;5047965;28;20211;-41
2022/01/31 06:11:44;;;;;;;4.88;2.85;;;27.00;50.40;;;;;;5047879;28;20261;-45
2022/01/31 06:14:15;;;;;;;4.43;2.92;;;27.00;50.40;;;;;;5047811;28;20278;-41
2022/01/31 06:16:46;;;;;;;5.47;2.80;;;27.00;50.40;;;;;;5047818;28;20216;-45
2022/01/31 06:19:16;;;;;;;4.65;2.78;;;27.00;50.30;;;;;;5048681;28;20199;-40
2022/01/31 06:21:47;;;;;;;4.40;2.55;;;27.00;50.30;;;;;;5049118;28;20253;-41
2022/01/31 06:24:19;;;;;;;7.00;3.17;;;27.00;50.40;;;;;;5048561;28;20207;-43
2022/01/31 06:26:50;;;;;;;4.95;2.50;;;27.00;50.30;;;;;;5048825;28;20277;-42
2022/01/31 06:29:21;;;;;;;5.50;2.85;;;27.00;50.40;;;;;;5048712;28;20474;-44
2022/01/31 06:31:51;;;;;;;4.30;2.40;;;27.00;50.30;;;;;;5048547;28;20671;-44
2022/01/31 06:34:22;;;;;;;3.75;2.22;;;27.00;50.30;;;;;;5048487;28;20196;-43
2022/01/31 06:36:53;;;;;;;7.03;3.10;;;26.90;50.30;;;;;;5048245;28;20277;-43
2022/01/31 06:39:25;;;;;;;9.95;4.20;;;26.90;50.30;;;;;;5040892;28;20268;-46
2022/01/31 06:41:56;;;;;;;6.10;3.38;;;26.90;50.40;;;;;;5050507;28;20195;-43
2022/01/31 06:44:26;;;;;;;9.35;3.88;;;26.90;50.50;;;;;;5033218;28;20617;-47
2022/01/31 06:46:57;;;;;;;5.88;3.05;;;26.90;50.50;;;;;;5035298;28;20224;-42
2022/01/31 06:49:27;;;;;;;6.50;3.10;;;26.90;50.60;;;;;;5048950;28;20203;-40
2022/01/31 06:51:58;;;;;;;5.18;3.20;;;26.80;50.50;;;;;;5041515;28;20656;-44
2022/01/31 06:54:30;;;;;;;6.38;3.35;;;26.80;50.60;;;;;;5040761;28;20253;-43
2022/01/31 06:57:01;;;;;;;5.60;2.75;;;26.80;50.60;;;;;;5049099;28;20215;-42
2022/01/31 06:59:32;;;;;;;4.38;2.67;;;26.80;50.60;;;;;;5048615;28;20202;-44
2022/01/31 07:02:02;;;;;;;5.75;2.95;;;26.80;50.60;;;;;;5049363;28;20655;-52
2022/01/31 07:04:33;;;;;;;4.82;2.67;;;26.80;50.60;;;;;;5032185;28;20289;-41
2022/01/31 07:07:04;;;;;;;3.92;2.58;;;26.80;50.60;;;;;;5034023;28;20220;-41
2022/01/31 07:09:37;;;;;;;8.55;3.20;;;26.80;50.60;;;;;;5052351;28;20655;-43
2022/01/31 07:12:10;;;;;;;5.15;2.60;;;26.80;50.60;;;;;;5038702;28;20251;-41
2022/01/31 07:14:41;;;;;;;4.35;2.80;;;26.80;50.60;;;;;;5045923;28;20199;-44
2022/01/31 07:17:11;;;;;;;5.13;2.20;;;26.80;50.60;;;;;;5045560;28;20219;-44
2022/01/31 07:19:42;;;;;;;11.23;2.47;;;26.80;50.60;;;;;;5049469;28;20566;-39
2022/01/31 07:22:14;;;;;;;5.25;1.35;;;26.70;50.40;;;;;;5049160;28;20640;-40
2022/01/31 07:24:51;;;;;;;5.85;1.52;;;26.50;50.60;;;;;;5048272;28;20199;-42
2022/01/31 07:27:22;;;;;;;5.47;1.55;;;26.30;50.80;;;;;;5065933;28;20199;-43
2022/01/31 07:29:52;;;;;;;6.40;2.00;;;26.20;50.90;;;;;;5049324;28;20254;-46
2022/01/31 07:32:23;;;;;;;7.25;1.95;;;26.20;51.10;;;;;;5048960;28;20285;-50
2022/01/31 07:34:55;;;;;;;9.05;1.85;;;26.10;51.10;;;;;;5048385;28;20830;-40
2022/01/31 07:37:26;;;;;;;6.13;1.95;;;26.10;51.10;;;;;;5039446;28;20204;-47
2022/01/31 07:39:59;;;;;;;4.82;1.80;;;26.10;51.30;;;;;;5034953;28;20199;-46
2022/01/31 07:42:29;;;;;;;5.45;1.85;;;26.00;51.30;;;;;;5042444;28;20244;-47
2022/01/31 07:45:00;;;;;;;4.95;1.83;;;26.00;51.30;;;;;;5060037;28;20204;-45
2022/01/31 07:47:30;;;;;;;4.70;1.60;;;26.00;51.40;;;;;;5048343;28;20496;-43
2022/01/31 07:50:02;;;;;;;4.10;1.50;;;26.00;51.40;;;;;;5063153;28;20561;-45
2022/01/31 07:52:33;;;;;;;4.78;1.83;;;25.90;51.30;;;;;;5048543;28;20789;-40
2022/01/31 07:55:06;;;;;;;5.05;1.70;;;25.90;51.40;;;;;;5048557;28;20257;-41
2022/01/31 07:57:37;;;;;;;5.88;1.80;;;25.90;51.60;;;;;;5048385;28;20256;-45
2022/01/31 08:00:10;;;;;;;4.57;1.75;;;25.90;51.60;;;;;;5048155;28;20203;-49
2022/01/31 08:02:40;;;;;;;6.22;2.08;;;25.90;51.60;;;;;;5040530;28;20250;-55
2022/01/31 08:05:12;;;;;;;4.38;1.65;;;25.90;51.60;;;;;;5035340;28;20273;-46
2022/01/31 08:07:45;;;;;;;4.32;1.50;;;25.80;51.60;;;;;;5036121;28;20196;-41
2022/01/31 08:10:18;;;;;;;4.03;1.73;;;25.80;51.60;;;;;;5046169;28;20242;-52
2022/01/31 08:12:48;;;;;;;2.95;1.38;;;25.80;51.60;;;;;;5048965;28;20679;-53
2022/01/31 08:15:25;;;;;;;5.47;1.90;;;25.80;51.70;;;;;;5048161;28;20215;-47
2022/01/31 08:17:56;;;;;;;3.45;1.60;;;25.80;51.60;;;;;;5048281;28;20202;-46
2022/01/31 08:20:26;;;;;;;5.07;1.67;;;25.80;51.70;;;;;;5047744;28;20249;-51
2022/01/31 08:22:57;;;;;;;5.47;1.50;;;25.80;51.60;;;;;;5047634;28;20211;-43
2022/01/31 08:25:35;;;;;;;2.88;1.55;;;25.80;51.70;;;;;;5044364;28;20238;-41
2022/01/31 08:28:11;;;;;;;3.88;1.67;;;25.70;51.60;;;;;;5045941;28;20203;-47
2022/01/31 08:30:49;;;;;;;4.78;1.50;;;25.70;51.60;;;;;;5046431;28;20198;-47
2022/01/31 08:33:33;;;;;;;3.72;1.63;;;25.70;51.60;;;;;;5044409;28;20229;-44
2022/01/31 08:36:04;;;;;;;3.22;1.80;;;25.70;51.60;;;;;;5045806;28;20269;-44
2022/01/31 08:38:35;;;;;;;2.70;1.45;;;25.70;51.60;;;;;;5046718;28;20211;-49
2022/01/31 08:41:08;;;;;;;3.53;1.40;;;25.70;51.60;;;;;;5049871;28;20200;-48
2022/01/31 08:43:39;;;;;;;2.97;1.80;;;25.60;51.60;;;;;;5048991;28;20199;-41
2022/01/31 08:46:11;;;;;;;2.95;1.65;;;25.60;51.50;;;;;;5051431;28;20345;-44
2022/01/31 08:48:42;;;;;;;3.40;1.50;;;25.60;51.60;;;;;;5050344;28;20245;-46
2022/01/31 08:51:14;;;;;;;3.30;1.50;;;25.60;52.20;;;;;;5049766;28;20199;-44
2022/01/31 08:53:48;;;;;;;4.07;1.60;;;25.60;51.60;;;;;;5050763;28;20337;-41
2022/01/31 08:56:21;;;;;;;3.85;1.70;;;25.60;51.60;;;;;;5049814;28;20221;-51
2022/01/31 08:58:52;;;;;;;3.15;1.70;;;25.60;51.60;;;;;;5049736;28;20289;-40
2022/01/31 09:01:23;;;;;;;4.00;1.60;;;25.60;51.50;;;;;;5049525;28;20209;-47
2022/01/31 09:04:04;;;;;;;2.80;1.67;;;25.50;51.50;;;;;;5050315;28;20200;-45
2022/01/31 09:06:36;;;;;;;4.18;1.88;;;25.50;51.50;;;;;;5050721;28;20306;-50
2022/01/31 09:09:12;;;;;;;3.58;1.70;;;25.50;51.50;;;;;;5050721;28;20198;-42
2022/01/31 09:11:44;;;;;;;2.30;1.48;;;25.50;52.10;;;;;;5049800;28;20651;-42
2022/01/31 09:14:15;;;;;;;2.45;1.40;;;25.50;51.40;;;;;;5049390;28;20289;-52
2022/01/31 09:16:45;;;;;;;3.03;1.60;;;25.50;51.50;;;;;;5050521;28;20772;-54
2022/01/31 09:19:16;;;;;;;2.28;1.48;;;25.50;51.50;;;;;;5049571;28;20207;-47
2022/01/31 09:21:48;;;;;;;1.80;1.58;;;25.50;51.50;;;;;;5049292;28;20235;-51
2022/01/31 09:24:18;;;;;;;2.70;1.55;;;25.40;51.50;;;;;;5049357;28;20204;-51
2022/01/31 09:26:51;;;;;;;2.58;1.55;;;25.40;51.50;;;;;;5049529;28;20223;-42
2022/01/31 09:29:21;;;;;;;3.70;1.77;;;25.40;51.50;;;;;;5050087;28;20604;-55
2022/01/31 09:31:52;;;;;;;2.38;1.50;;;25.40;51.50;;;;;;5050071;28;20202;-46
2022/01/31 09:34:23;;;;;;;1.98;1.48;;;25.30;51.50;;;;;;5049773;28;20227;-52
2022/01/31 09:36:54;;;;;;;2.25;1.30;;;25.30;51.50;;;;;;5049042;28;20272;-50
2022/01/31 09:39:25;;;;;;;2.25;1.27;;;25.30;51.50;;;;;;5049023;28;20636;-45
2022/01/31 09:41:58;;;;;;;3.03;1.45;;;25.30;52.10;;;;;;5050350;28;20204;-44
2022/01/31 09:44:42;;;;;;;2.08;1.30;;;25.30;51.50;;;;;;5049558;28;20191;-40
2022/01/31 09:47:22;;;;;;;1.83;1.40;;;25.30;51.40;;;;;;5049350;28;20219;-42
2022/01/31 09:49:53;;;;;;;2.30;1.30;;;25.30;51.50;;;;;;5049775;28;20195;-40
2022/01/31 09:52:24;;;;;;;2.40;1.48;;;25.30;51.50;;;;;;5050499;28;20743;-44
2022/01/31 09:54:54;;;;;;;2.40;1.40;;;25.20;51.40;;;;;;5049805;28;20276;-40
2022/01/31 09:57:27;;;;;;;2.53;1.52;;;25.20;51.40;;;;;;5049524;28;20614;-44
2022/01/31 09:59:57;;;;;;;2.55;1.65;;;25.20;51.40;;;;;;5049845;28;20258;-43
2022/01/31 10:02:28;;;;;;;2.08;1.50;;;25.20;51.40;;;;;;5048238;28;20922;-40
2022/01/31 10:04:59;;;;;;;2.80;1.50;;;25.20;50.90;;;;;;5048394;28;20678;-48
2022/01/31 10:07:47;;;;;;;1.95;1.40;;;25.10;51.40;;;;;;5048316;28;20191;-44
2022/01/31 10:10:24;;;;;;;2.75;1.50;;;25.10;51.40;;;;;;5049426;28;20234;-40
2022/01/31 10:19:03;;;;;;;2.47;1.65;;;25.00;51.40;;;;;;5047947;28;20549;-40
2022/01/31 10:21:34;;;;;;;2.35;1.45;;;25.00;51.40;;;;;;5048972;28;20675;-40
2022/01/31 10:24:18;;;;;;;3.17;1.60;;;25.00;51.40;;;;;;5048682;28;20200;-46
2022/01/31 10:26:48;;;;;;;1.75;1.50;;;25.00;51.40;;;;;;5049331;28;20314;-44
2022/01/31 10:29:22;;;;;;;1.98;1.42;;;25.00;51.40;;;;;;5048911;28;20277;-54
2022/01/31 10:32:05;;;;;;;2.00;1.45;;;24.90;51.40;;;;;;5048851;28;20672;-45
2022/01/31 10:34:39;;;;;;;2.17;1.40;;;24.90;51.30;;;;;;5048518;28;20227;-40
2022/01/31 10:37:15;;;;;;;2.67;1.48;;;24.90;51.30;;;;;;5048825;28;20212;-40
2022/01/31 10:54:08;;;;;;;1.95;1.42;;;24.80;51.30;;;;;;5042738;28;20223;-49
2022/01/31 10:56:41;;;;;;;2.78;1.40;;;24.70;51.30;;;;;;5049184;28;20589;-40
2022/01/31 10:59:14;;;;;;;2.83;1.50;;;24.70;51.40;;;;;;5048096;28;20207;-41
2022/01/31 11:01:48;;;;;;;2.22;1.50;;;24.70;51.40;;;;;;5048256;28;20253;-40
2022/01/31 11:04:19;;;;;;;2.70;1.50;;;24.70;51.40;;;;;;5040066;28;20618;-42
2022/01/31 11:06:52;;;;;;;2.85;1.48;;;24.70;51.40;;;;;;5036889;28;20695;-47
2022/01/31 11:09:23;;;;;;;1.63;1.50;;;24.60;51.30;;;;;;5044360;28;20198;-47
2022/01/31 11:11:54;;;;;;;1.38;1.25;;;24.60;51.30;;;;;;5049458;28;20245;-47
2022/01/31 11:14:26;;;;;;;2.03;1.20;;;24.60;51.30;;;;;;5049819;28;20227;-40
2022/01/31 11:16:58;;;;;;;2.13;1.30;;;24.60;51.30;;;;;;5049631;28;20963;-45
2022/01/31 11:19:33;;;;;;;1.20;1.10;;;24.60;51.40;;;;;;5048950;28;20196;-42
2022/01/31 11:22:08;;;;;;;1.88;1.35;;;24.50;51.30;;;;;;5049352;28;20194;-46
2022/01/31 11:24:46;;;;;;;3.30;1.60;;;24.50;51.30;;;;;;5036126;28;20297;-42
2022/01/31 11:27:21;;;;;;;1.95;1.20;;;24.50;51.30;;;;;;5046307;28;20223;-48
2022/01/31 11:29:55;;;;;;;2.22;1.40;;;24.50;51.30;;;;;;5048666;28;20249;-42
2022/01/31 11:32:28;;;;;;;1.13;1.02;;;24.50;51.40;;;;;;5041462;28;20207;-46
2022/01/31 11:34:59;;;;;;;1.73;1.20;;;24.50;51.40;;;;;;5035485;28;20231;-47
2022/01/31 11:37:29;;;;;;;2.05;1.50;;;24.40;51.30;;;;;;5037166;28;20761;-41
2022/01/31 11:40:05;;;;;;;2.00;1.15;;;24.40;51.40;;;;;;5052840;28;20382;-41
2022/01/31 11:42:36;;;;;;;2.17;1.40;;;24.40;51.40;;;;;;5048791;28;20195;-41
2022/01/31 11:45:15;;;;;;;1.20;1.10;;;24.30;51.40;;;;;;5066012;28;20281;-40
2022/01/31 11:47:50;;;;;;;2.47;1.30;;;24.30;51.40;;;;;;5038296;28;20610;-49
2022/01/31 11:50:23;;;;;;;1.75;1.33;;;24.30;51.40;;;;;;5048492;28;20199;-42
2022/01/31 11:52:56;;;;;;;1.20;1.10;;;24.30;51.40;;;;;;5047764;28;20203;-46
2022/01/31 11:55:29;;;;;;;3.65;1.20;;;24.30;51.40;;;;;;5047504;28;20276;-42
2022/01/31 11:58:00;;;;;;;1.45;1.00;;;24.20;51.40;;;;;;5047998;28;20202;-43
2022/01/31 12:00:31;;;;;;;1.75;1.20;;;24.20;51.40;;;;;;5050607;28;20199;-47
2022/01/31 12:03:09;;;;;;;1.27;1.17;;;24.20;51.40;;;;;;5045469;28;20203;-52
2022/01/31 12:05:40;;;;;;;1.83;1.15;;;24.20;51.40;;;;;;5035018;28;20629;-43
2022/01/31 12:08:15;;;;;;;2.28;1.23;;;24.20;51.40;;;;;;5049295;28;20629;-47
2022/01/31 12:10:47;;;;;;;1.55;1.20;;;24.20;51.40;;;;;;5032112;28;20199;-41
2022/01/31 12:13:38;;;;;;;1.70;1.33;;;24.20;51.40;;;;;;5051881;28;20199;-45
2022/01/31 12:16:23;;;;;;;1.77;1.20;;;24.10;51.40;;;;;;5058704;28;20305;-51
2022/01/31 12:19:15;;;;;;;1.92;1.30;;;24.10;51.30;;;;;;5049519;28;20196;-41
2022/01/31 12:22:02;;;;;;;1.50;1.30;;;24.10;51.40;;;;;;5032066;28;20200;-40
2022/01/31 12:24:35;;;;;;;1.95;1.52;;;24.10;51.40;;;;;;5048924;28;20210;-50
2022/01/31 12:27:11;;;;;;;1.52;1.20;;;24.00;51.40;;;;;;5051631;28;20223;-47
2022/01/31 12:29:44;;;;;;;2.08;1.25;;;24.00;51.50;;;;;;5047630;28;20211;-48
2022/01/31 12:32:17;;;;;;;1.55;1.20;;;24.00;51.50;;;;;;5047127;28;20797;-41
2022/01/31 12:34:58;;;;;;;2.20;1.38;;;24.00;51.50;;;;;;5047413;28;20273;-41
2022/01/31 12:37:34;;;;;;;2.05;1.40;;;23.90;51.50;;;;;;5047489;28;20935;-43
2022/01/31 12:40:27;;;;;;;2.88;1.23;;;23.90;51.50;;;;;;5043134;28;20779;-47
2022/01/31 12:43:13;;;;;;;1.98;1.17;;;23.90;51.50;;;;;;5048376;28;20662;-50
2022/01/31 12:46:07;;;;;;;1.52;1.13;;;23.90;51.40;;;;;;5050926;28;20219;-50
2022/01/31 12:48:39;;;;;;;1.17;1.08;;;23.80;51.40;;;;;;5036922;28;20709;-43
2022/01/31 12:51:20;;;;;;;1.02;0.98;;;23.80;51.40;;;;;;5035197;28;20200;-51
2022/01/31 12:53:52;;;;;;;1.70;1.20;;;23.80;51.40;;;;;;5037930;28;20203;-49
2022/01/31 12:56:33;;;;;;;2.25;0.98;;;23.80;51.40;;;;;;5048297;28;20222;-44
2022/01/31 12:59:11;;;;;;;1.30;1.10;;;23.80;51.40;;;;;;5032905;28;20705;-43
2022/01/31 13:01:43;;;;;;;2.13;1.40;;;23.80;51.40;;;;;;5046130;28;20264;-43
2022/01/31 13:04:15;;;;;;;1.85;1.20;;;23.80;51.40;;;;;;5041556;28;20204;-44
2022/01/31 13:06:49;;;;;;;1.20;1.10;;;23.70;51.50;;;;;;5050069;28;20627;-44
2022/01/31 13:09:25;;;;;;;1.55;1.27;;;23.80;51.50;;;;;;5036025;28;20200;-45
2022/01/31 13:11:57;;;;;;;2.33;1.30;;;23.70;51.50;;;;;;5040298;28;20249;-47
2022/01/31 13:14:29;;;;;;;2.08;1.17;;;23.70;51.60;;;;;;5047174;28;20227;-50
2022/01/31 13:17:07;;;;;;;1.88;1.23;;;23.70;51.60;;;;;;5047146;28;20219;-47
2022/01/31 13:19:40;;;;;;;1.63;1.00;;;23.70;51.60;;;;;;5047372;28;20546;-41
2022/01/31 13:22:15;;;;;;;1.10;1.00;;;23.60;51.50;;;;;;5048185;28;20196;-43
2022/01/31 13:24:49;;;;;;;1.40;1.08;;;23.60;51.60;;;;;;5061626;28;20198;-42
2022/01/31 13:27:21;;;;;;;2.00;1.23;;;23.60;51.60;;;;;;5039587;28;20216;-45
2022/01/31 13:29:52;;;;;;;1.05;0.95;;;23.60;51.70;;;;;;5034837;28;20196;-47
2022/01/31 13:32:28;;;;;;;1.73;1.30;;;23.50;51.70;;;;;;5051259;28;20199;-42
2022/01/31 13:35:01;;;;;;;0.95;0.90;;;23.50;51.60;;;;;;5050952;28;20222;-40
2022/01/31 13:37:40;;;;;;;0.90;0.85;;;23.50;51.50;;;;;;5039978;28;20196;-40